createdAt,value
2018-03-08T00:00:18.984Z,75.68
2018-03-08T00:01:18.988Z,78.04
2018-03-08T00:02:18.989Z,78.79
2018-03-08T00:03:18.988Z,79.17
2018-03-08T00:04:18.991Z,80.30
2018-03-08T00:05:18.991Z,80.49
2018-03-08T00:06:18.995Z,79.55
2018-03-08T00:07:19.002Z,77.94
2018-03-08T00:08:19.000Z,75.68
2018-03-08T00:09:19.009Z,75.02
2018-03-08T00:10:19.005Z,74.83
2018-03-08T00:11:19.016Z,75.11
2018-03-08T00:12:19.018Z,73.69
2018-03-08T00:13:19.070Z,73.88
2018-03-08T00:14:19.021Z,74.17
2018-03-08T00:15:19.025Z,75.02
2018-03-08T00:16:19.028Z,75.68
2018-03-08T00:17:19.029Z,74.55
2018-03-08T00:18:19.034Z,73.79
2018-03-08T00:19:19.028Z,73.22
2018-03-08T00:20:19.033Z,72.85
2018-03-08T00:21:19.041Z,72.56
2018-03-08T00:22:19.036Z,72.75
2018-03-08T00:23:19.042Z,72.38
2018-03-08T00:24:19.042Z,72.09
2018-03-08T00:25:19.043Z,72.09
2018-03-08T00:26:19.051Z,72.09
2018-03-08T00:27:19.055Z,71.91
2018-03-08T00:28:19.056Z,71.81
2018-03-08T00:29:19.058Z,71.25
2018-03-08T00:30:19.056Z,72.38
2018-03-08T00:31:19.063Z,73.98
2018-03-08T00:32:19.066Z,74.64
2018-03-08T00:33:19.063Z,74.83
2018-03-08T00:34:19.065Z,73.69
2018-03-08T00:35:19.067Z,73.79
2018-03-08T00:36:19.076Z,73.98
2018-03-08T00:37:19.075Z,74.26
2018-03-08T00:38:19.079Z,74.64
2018-03-08T00:39:19.084Z,75.11
2018-03-08T00:40:19.080Z,75.87
2018-03-08T00:41:19.084Z,75.68
2018-03-08T00:42:19.090Z,75.78
2018-03-08T00:43:19.092Z,76.15
2018-03-08T00:44:19.098Z,73.79
2018-03-08T00:45:19.096Z,72.47
2018-03-08T00:46:19.099Z,72.38
2018-03-08T00:47:19.097Z,73.69
2018-03-08T00:48:19.105Z,74.92
2018-03-08T00:49:19.101Z,75.21
2018-03-08T00:50:19.105Z,73.79
2018-03-08T00:51:19.106Z,73.22
2018-03-08T00:52:19.114Z,74.07
2018-03-08T00:53:19.115Z,74.07
2018-03-08T00:54:19.118Z,74.07
2018-03-08T00:55:19.115Z,73.88
2018-03-08T00:56:19.117Z,74.26
2018-03-08T00:57:19.119Z,74.36
2018-03-08T00:58:19.123Z,74.64
2018-03-08T00:59:19.130Z,74.74
2018-03-08T01:00:19.132Z,74.83
2018-03-08T01:01:19.131Z,74.74
2018-03-08T01:02:19.134Z,74.92
2018-03-08T01:03:19.152Z,75.49
2018-03-08T01:04:19.139Z,75.68
2018-03-08T01:05:19.143Z,75.11
2018-03-08T01:06:19.146Z,75.78
2018-03-08T01:07:19.143Z,75.49
2018-03-08T01:08:19.146Z,75.30
2018-03-08T01:09:19.151Z,74.92
2018-03-08T01:10:19.150Z,74.74
2018-03-08T01:11:19.198Z,74.74
2018-03-08T01:12:19.160Z,74.26
2018-03-08T01:13:19.164Z,74.36
2018-03-08T01:14:19.165Z,74.55
2018-03-08T01:15:19.160Z,74.55
2018-03-08T01:16:19.164Z,74.55
2018-03-08T01:17:19.165Z,74.55
2018-03-08T01:18:19.173Z,74.74
2018-03-08T01:19:19.175Z,74.83
2018-03-08T01:20:19.176Z,74.74
2018-03-08T01:21:19.174Z,74.36
2018-03-08T01:22:19.176Z,74.83
2018-03-08T01:23:19.178Z,75.26
2018-03-08T01:24:19.180Z,75.02
2018-03-08T01:25:19.187Z,75.21
2018-03-08T01:26:19.188Z,75.68
2018-03-08T01:27:19.193Z,75.54
2018-03-08T01:28:19.194Z,75.64
2018-03-08T01:29:19.196Z,75.54
2018-03-08T01:30:19.196Z,75.64
2018-03-08T01:31:19.200Z,75.73
2018-03-08T01:32:19.201Z,75.73
2018-03-08T01:33:19.205Z,75.64
2018-03-08T01:34:19.199Z,75.73
2018-03-08T01:35:19.210Z,76.06
2018-03-08T01:36:19.204Z,75.59
2018-03-08T01:37:19.212Z,75.92
2018-03-08T01:38:19.208Z,75.64
2018-03-08T01:39:19.215Z,75.92
2018-03-08T01:40:19.218Z,76.30
2018-03-08T01:41:19.219Z,76.68
2018-03-08T01:42:19.217Z,76.11
2018-03-08T01:43:19.223Z,76.40
2018-03-08T01:44:19.227Z,75.83
2018-03-08T01:45:19.230Z,75.83
2018-03-08T01:46:19.227Z,75.92
2018-03-08T01:47:19.229Z,76.02
2018-03-08T01:48:19.229Z,75.64
2018-03-08T01:49:19.237Z,75.07
2018-03-08T01:50:19.233Z,74.64
2018-03-08T01:51:19.235Z,74.74
2018-03-08T01:52:19.244Z,73.79
2018-03-08T01:53:19.239Z,73.32
2018-03-08T01:54:19.242Z,73.03
2018-03-08T01:55:19.244Z,72.85
2018-03-08T01:56:19.252Z,72.47
2018-03-08T01:57:19.254Z,72.28
2018-03-08T01:58:19.256Z,71.06
2018-03-08T01:59:19.252Z,70.96
2018-03-08T02:00:19.253Z,71.06
2018-03-08T02:01:19.257Z,71.43
2018-03-08T02:02:19.259Z,71.15
2018-03-08T02:03:19.264Z,71.91
2018-03-08T02:04:19.262Z,72.00
2018-03-08T02:05:19.264Z,72.56
2018-03-08T02:06:19.272Z,72.66
2018-03-08T02:07:19.268Z,72.56
2018-03-08T02:08:19.274Z,72.85
2018-03-08T02:09:19.273Z,72.66
2018-03-08T02:10:19.274Z,73.22
2018-03-08T02:11:19.283Z,73.22
2018-03-08T02:12:19.289Z,73.03
2018-03-08T02:13:19.282Z,73.51
2018-03-08T02:14:19.292Z,73.03
2018-03-08T02:15:19.285Z,71.72
2018-03-08T02:16:19.289Z,70.30
2018-03-08T02:17:19.302Z,68.51
2018-03-08T02:18:19.291Z,67.19
2018-03-08T02:19:19.294Z,66.15
2018-03-08T02:20:19.296Z,63.98
2018-03-08T02:21:19.300Z,62.56
2018-03-08T02:22:19.307Z,63.03
2018-03-08T02:23:19.304Z,63.60
2018-03-08T02:24:19.308Z,63.89
2018-03-08T02:25:19.312Z,64.54
2018-03-08T02:26:19.316Z,63.89
2018-03-08T02:27:19.317Z,63.03
2018-03-08T02:28:19.315Z,62.66
2018-03-08T02:29:19.322Z,62.66
2018-03-08T02:30:19.331Z,62.47
2018-03-08T02:31:19.321Z,63.89
2018-03-08T02:32:19.335Z,64.92
2018-03-08T02:33:19.331Z,65.48
2018-03-08T02:34:19.329Z,66.24
2018-03-08T02:35:19.331Z,66.62
2018-03-08T02:36:19.334Z,65.96
2018-03-08T02:37:19.336Z,65.11
2018-03-08T02:38:19.338Z,64.64
2018-03-08T02:39:19.341Z,65.39
2018-03-08T02:40:19.342Z,65.86
2018-03-08T02:41:19.351Z,66.05
2018-03-08T02:42:19.354Z,66.71
2018-03-08T02:43:19.349Z,67.38
2018-03-08T02:44:19.356Z,67.19
2018-03-08T02:45:19.360Z,67.47
2018-03-08T02:46:19.365Z,67.94
2018-03-08T02:47:19.361Z,67.94
2018-03-08T02:48:19.368Z,67.75
2018-03-08T02:49:19.368Z,66.71
2018-03-08T02:50:19.373Z,65.96
2018-03-08T02:51:19.375Z,65.67
2018-03-08T02:52:19.373Z,66.15
2018-03-08T02:53:19.380Z,66.15
2018-03-08T02:54:19.376Z,66.05
2018-03-08T02:55:19.384Z,66.81
2018-03-08T02:56:19.393Z,66.62
2018-03-08T02:57:19.384Z,66.62
2018-03-08T02:58:19.387Z,66.71
2018-03-08T02:59:19.390Z,66.15
2018-03-08T03:00:19.397Z,66.15
2018-03-08T03:01:19.393Z,65.96
2018-03-08T03:02:19.401Z,66.05
2018-03-08T03:03:19.399Z,66.05
2018-03-08T03:04:19.402Z,66.24
2018-03-08T03:05:19.405Z,66.15
2018-03-08T03:06:19.410Z,65.96
2018-03-08T03:07:19.413Z,66.05
2018-03-08T03:08:19.416Z,67.09
2018-03-08T03:09:19.412Z,67.09
2018-03-08T03:10:19.419Z,66.15
2018-03-08T03:11:19.416Z,66.05
2018-03-08T03:12:19.420Z,65.77
2018-03-08T03:13:19.426Z,65.58
2018-03-08T03:14:19.439Z,65.39
2018-03-08T03:15:19.430Z,65.39
2018-03-08T03:16:19.434Z,65.77
2018-03-08T03:17:19.432Z,65.92
2018-03-08T03:18:19.434Z,66.21
2018-03-08T03:19:19.440Z,66.05
2018-03-08T03:20:19.444Z,65.92
2018-03-08T03:21:19.449Z,65.55
2018-03-08T03:22:19.449Z,66.11
2018-03-08T03:23:19.446Z,65.83
2018-03-08T03:24:19.457Z,65.36
2018-03-08T03:25:19.449Z,65.64
2018-03-08T03:26:19.457Z,65.64
2018-03-08T03:27:19.460Z,66.02
2018-03-08T03:28:19.457Z,66.02
2018-03-08T03:29:19.458Z,66.11
2018-03-08T03:30:19.469Z,65.96
2018-03-08T03:31:19.471Z,66.68
2018-03-08T03:32:19.472Z,66.49
2018-03-08T03:33:19.474Z,67.06
2018-03-08T03:34:19.477Z,66.68
2018-03-08T03:35:19.472Z,66.02
2018-03-08T03:36:19.475Z,65.92
2018-03-08T03:37:19.477Z,66.30
2018-03-08T03:38:19.484Z,65.92
2018-03-08T03:39:19.488Z,66.68
2018-03-08T03:40:19.491Z,66.49
2018-03-08T03:41:19.491Z,66.58
2018-03-08T03:42:19.495Z,67.43
2018-03-08T03:43:19.497Z,67.06
2018-03-08T03:44:19.499Z,67.25
2018-03-08T03:45:19.501Z,67.43
2018-03-08T03:46:19.496Z,68.00
2018-03-08T03:47:19.501Z,69.32
2018-03-08T03:48:19.506Z,69.60
2018-03-08T03:49:19.510Z,69.32
2018-03-08T03:50:19.505Z,68.66
2018-03-08T03:51:19.515Z,68.00
2018-03-08T03:52:19.515Z,67.53
2018-03-08T03:53:19.517Z,67.15
2018-03-08T03:54:19.515Z,67.15
2018-03-08T03:55:19.520Z,67.72
2018-03-08T03:56:19.523Z,68.38
2018-03-08T03:57:19.520Z,68.10
2018-03-08T03:58:19.522Z,68.10
2018-03-08T03:59:19.528Z,68.38
2018-03-08T04:00:19.528Z,68.76
2018-03-08T04:01:19.528Z,69.23
2018-03-08T04:02:19.529Z,69.42
2018-03-08T04:03:19.532Z,69.42
2018-03-08T04:04:19.535Z,69.51
2018-03-08T04:05:19.535Z,69.32
2018-03-08T04:06:19.539Z,69.23
2018-03-08T04:07:19.544Z,69.23
2018-03-08T04:08:19.543Z,69.42
2018-03-08T04:09:19.546Z,69.70
2018-03-08T04:10:19.551Z,69.98
2018-03-08T04:11:19.555Z,70.45
2018-03-08T04:12:19.553Z,70.83
2018-03-08T04:13:19.553Z,71.21
2018-03-08T04:14:19.559Z,71.02
2018-03-08T04:15:19.562Z,71.77
2018-03-08T04:16:19.562Z,71.68
2018-03-08T04:17:19.559Z,71.77
2018-03-08T04:18:19.562Z,71.58
2018-03-08T04:19:19.563Z,71.40
2018-03-08T04:20:19.571Z,71.21
2018-03-08T04:21:19.572Z,70.64
2018-03-08T04:22:19.628Z,70.26
2018-03-08T04:23:19.571Z,69.98
2018-03-08T04:24:19.580Z,70.26
2018-03-08T04:25:19.579Z,70.07
2018-03-08T04:26:19.582Z,69.13
2018-03-08T04:27:19.587Z,68.00
2018-03-08T04:28:19.581Z,68.00
2018-03-08T04:29:19.586Z,68.19
2018-03-08T04:30:19.591Z,68.38
2018-03-08T04:31:19.592Z,69.51
2018-03-08T04:32:19.595Z,70.64
2018-03-08T04:33:19.591Z,70.92
2018-03-08T04:34:19.601Z,71.68
2018-03-08T04:35:19.601Z,72.15
2018-03-08T04:36:19.598Z,71.96
2018-03-08T04:37:19.605Z,71.77
2018-03-08T04:38:19.606Z,72.06
2018-03-08T04:39:19.602Z,72.34
2018-03-08T04:40:19.611Z,72.72
2018-03-08T04:41:19.612Z,72.81
2018-03-08T04:42:19.608Z,72.81
2018-03-08T04:43:19.612Z,73.28
2018-03-08T04:44:19.620Z,72.81
2018-03-08T04:45:19.619Z,72.81
2018-03-08T04:46:19.622Z,72.53
2018-03-08T04:47:19.625Z,72.91
2018-03-08T04:48:19.627Z,72.25
2018-03-08T04:49:19.627Z,72.06
2018-03-08T04:50:19.624Z,71.58
2018-03-08T04:51:19.626Z,71.21
2018-03-08T04:52:19.629Z,71.11
2018-03-08T04:53:19.634Z,71.02
2018-03-08T04:54:19.642Z,71.87
2018-03-08T04:55:19.635Z,71.68
2018-03-08T04:56:19.635Z,71.87
2018-03-08T04:57:19.644Z,71.87
2018-03-08T04:58:19.643Z,71.87
2018-03-08T04:59:19.643Z,71.87
2018-03-08T05:00:19.641Z,71.87
2018-03-08T05:01:19.649Z,71.77
2018-03-08T05:02:19.648Z,71.96
2018-03-08T05:03:19.650Z,72.53
2018-03-08T05:04:19.649Z,72.25
2018-03-08T05:05:19.653Z,72.06
2018-03-08T05:06:19.655Z,72.25
2018-03-08T05:07:19.656Z,72.53
2018-03-08T05:08:19.652Z,71.96
2018-03-08T05:09:19.657Z,72.34
2018-03-08T05:10:19.656Z,72.72
2018-03-08T05:11:19.655Z,72.72
2018-03-08T05:12:19.663Z,72.81
2018-03-08T05:13:19.663Z,73.28
2018-03-08T05:14:19.673Z,73.10
2018-03-08T05:15:19.667Z,73.47
2018-03-08T05:16:19.663Z,73.10
2018-03-08T05:17:19.666Z,72.91
2018-03-08T05:18:19.666Z,73.19
2018-03-08T05:19:19.674Z,73.10
2018-03-08T05:20:19.668Z,73.19
2018-03-08T05:21:19.674Z,73.47
2018-03-08T05:22:19.679Z,73.10
2018-03-08T05:23:19.673Z,73.28
2018-03-08T05:24:19.680Z,73.00
2018-03-08T05:25:19.680Z,73.10
2018-03-08T05:26:19.682Z,73.00
2018-03-08T05:27:19.684Z,73.00
2018-03-08T05:28:19.685Z,73.00
2018-03-08T05:29:19.681Z,73.47
2018-03-08T05:30:19.687Z,73.28
2018-03-08T05:31:19.688Z,73.19
2018-03-08T05:32:19.694Z,73.28
2018-03-08T05:33:19.691Z,73.47
2018-03-08T05:34:19.689Z,73.47
2018-03-08T05:35:19.694Z,73.47
2018-03-08T05:36:19.695Z,73.10
2018-03-08T05:37:19.692Z,73.47
2018-03-08T05:38:19.692Z,73.19
2018-03-08T05:39:19.698Z,73.00
2018-03-08T05:40:19.699Z,72.91
2018-03-08T05:41:19.696Z,72.81
2018-03-08T05:42:19.697Z,72.81
2018-03-08T05:43:19.699Z,73.00
2018-03-08T05:44:19.709Z,72.44
2018-03-08T05:45:19.704Z,72.44
2018-03-08T05:46:19.710Z,72.34
2018-03-08T05:47:19.704Z,71.87
2018-03-08T05:48:19.712Z,71.87
2018-03-08T05:49:19.707Z,71.87
2018-03-08T05:50:19.711Z,71.68
2018-03-08T05:51:19.710Z,71.40
2018-03-08T05:52:19.723Z,71.30
2018-03-08T05:53:19.716Z,71.02
2018-03-08T05:54:19.714Z,71.11
2018-03-08T05:55:19.716Z,71.30
2018-03-08T05:56:19.721Z,71.21
2018-03-08T05:57:19.717Z,70.73
2018-03-08T05:58:19.721Z,70.64
2018-03-08T05:59:19.721Z,70.54
2018-03-08T06:00:19.724Z,70.64
2018-03-08T06:01:19.722Z,70.45
2018-03-08T06:02:19.730Z,70.73
2018-03-08T06:03:19.731Z,70.73
2018-03-08T06:04:19.732Z,70.92
2018-03-08T06:05:19.734Z,71.21
2018-03-08T06:06:19.730Z,71.11
2018-03-08T06:07:19.766Z,71.40
2018-03-08T06:08:19.741Z,71.30
2018-03-08T06:09:19.741Z,71.30
2018-03-08T06:10:19.737Z,71.02
2018-03-08T06:11:19.749Z,71.30
2018-03-08T06:12:19.745Z,71.30
2018-03-08T06:13:19.741Z,71.21
2018-03-08T06:14:19.741Z,71.30
2018-03-08T06:15:19.742Z,71.30
2018-03-08T06:16:19.745Z,71.40
2018-03-08T06:17:19.750Z,71.30
2018-03-08T06:18:19.752Z,71.40
2018-03-08T06:19:19.803Z,71.30
2018-03-08T06:20:19.757Z,71.21
2018-03-08T06:21:19.758Z,71.11
2018-03-08T06:22:19.760Z,71.11
2018-03-08T06:23:19.757Z,70.54
2018-03-08T06:24:19.763Z,70.73
2018-03-08T06:25:19.760Z,70.64
2018-03-08T06:26:19.766Z,70.54
2018-03-08T06:27:19.768Z,70.83
2018-03-08T06:28:19.777Z,70.45
2018-03-08T06:29:19.771Z,70.07
2018-03-08T06:30:19.776Z,69.89
2018-03-08T06:31:19.769Z,69.32
2018-03-08T06:32:19.776Z,68.38
2018-03-08T06:33:19.783Z,67.91
2018-03-08T06:34:19.781Z,67.62
2018-03-08T06:35:19.783Z,67.53
2018-03-08T06:36:19.783Z,67.43
2018-03-08T06:37:19.784Z,67.25
2018-03-08T06:38:19.790Z,67.53
2018-03-08T06:39:19.789Z,67.53
2018-03-08T06:40:19.787Z,67.81
2018-03-08T06:41:19.790Z,67.34
2018-03-08T06:42:19.792Z,67.62
2018-03-08T06:43:19.795Z,67.53
2018-03-08T06:44:19.794Z,67.43
2018-03-08T06:45:19.799Z,67.25
2018-03-08T06:46:19.795Z,67.06
2018-03-08T06:47:19.798Z,67.15
2018-03-08T06:48:19.799Z,67.25
2018-03-08T06:49:19.800Z,67.15
2018-03-08T06:50:19.806Z,67.62
2018-03-08T06:51:19.811Z,67.06
2018-03-08T06:52:19.808Z,67.15
2018-03-08T06:53:19.813Z,67.43
2018-03-08T06:54:19.809Z,67.81
2018-03-08T06:55:19.811Z,67.06
2018-03-08T06:56:19.816Z,67.06
2018-03-08T06:57:19.813Z,67.06
2018-03-08T06:58:19.817Z,67.25
2018-03-08T06:59:19.824Z,66.40
2018-03-08T07:00:19.826Z,65.26
2018-03-08T07:01:19.828Z,65.55
2018-03-08T07:02:19.825Z,66.11
2018-03-08T07:03:19.827Z,66.40
2018-03-08T07:04:19.829Z,66.02
2018-03-08T07:05:19.830Z,65.64
2018-03-08T07:06:19.835Z,65.26
2018-03-08T07:07:19.840Z,65.26
2018-03-08T07:08:19.842Z,64.79
2018-03-08T07:09:19.838Z,65.26
2018-03-08T07:10:19.846Z,65.36
2018-03-08T07:11:19.845Z,65.36
2018-03-08T07:12:19.849Z,65.73
2018-03-08T07:13:19.854Z,65.83
2018-03-08T07:14:19.854Z,65.64
2018-03-08T07:15:19.854Z,65.55
2018-03-08T07:16:19.851Z,65.26
2018-03-08T07:17:19.853Z,65.55
2018-03-08T07:18:19.859Z,65.26
2018-03-08T07:19:19.862Z,65.55
2018-03-08T07:20:19.859Z,65.55
2018-03-08T07:21:19.866Z,65.26
2018-03-08T07:22:19.867Z,65.64
2018-03-08T07:23:19.864Z,65.26
2018-03-08T07:24:19.876Z,64.98
2018-03-08T07:25:19.873Z,64.89
2018-03-08T07:26:19.876Z,65.17
2018-03-08T07:27:19.874Z,65.26
2018-03-08T07:28:19.875Z,65.55
2018-03-08T07:29:19.876Z,65.26
2018-03-08T07:30:19.879Z,65.08
2018-03-08T07:31:19.886Z,65.20
2018-03-08T07:32:19.883Z,65.17
2018-03-08T07:33:19.886Z,65.26
2018-03-08T07:34:19.886Z,64.89
2018-03-08T07:35:19.895Z,65.08
2018-03-08T07:36:19.891Z,64.89
2018-03-08T07:37:19.893Z,64.92
2018-03-08T07:38:19.895Z,65.20
2018-03-08T07:39:19.897Z,65.01
2018-03-08T07:40:19.905Z,64.64
2018-03-08T07:41:19.908Z,64.45
2018-03-08T07:42:19.907Z,63.98
2018-03-08T07:43:19.908Z,63.89
2018-03-08T07:44:19.909Z,63.60
2018-03-08T07:45:19.911Z,62.94
2018-03-08T07:46:19.921Z,62.84
2018-03-08T07:47:19.914Z,62.28
2018-03-08T07:48:19.919Z,62.56
2018-03-08T07:49:19.927Z,62.50
2018-03-08T07:50:19.923Z,62.12
2018-03-08T07:51:19.928Z,62.21
2018-03-08T07:52:19.940Z,62.59
2018-03-08T07:53:19.932Z,62.97
2018-03-08T07:54:19.934Z,62.12
2018-03-08T07:55:19.944Z,61.55
2018-03-08T07:56:19.946Z,61.74
2018-03-08T07:57:19.949Z,62.02
2018-03-08T07:58:19.951Z,60.99
2018-03-08T07:59:19.954Z,61.08
2018-03-08T08:00:20.010Z,61.84
2018-03-08T08:01:19.955Z,62.31
2018-03-08T08:02:19.958Z,61.93
2018-03-08T08:03:19.960Z,60.42
2018-03-08T08:04:19.965Z,59.57
2018-03-08T08:05:19.973Z,59.48
2018-03-08T08:06:19.971Z,59.86
2018-03-08T08:07:19.973Z,60.05
2018-03-08T08:08:19.978Z,60.52
2018-03-08T08:09:19.980Z,60.52
2018-03-08T08:10:19.990Z,60.24
2018-03-08T08:11:19.994Z,60.05
2018-03-08T08:12:19.991Z,59.29
2018-03-08T08:13:19.998Z,60.05
2018-03-08T08:14:20.004Z,60.61
2018-03-08T08:15:20.002Z,60.61
2018-03-08T08:16:20.008Z,60.52
2018-03-08T08:17:20.015Z,60.80
2018-03-08T08:18:20.009Z,62.02
2018-03-08T08:19:20.013Z,61.84
2018-03-08T08:20:20.022Z,62.88
2018-03-08T08:21:20.018Z,62.40
2018-03-08T08:22:20.023Z,60.05
2018-03-08T08:23:20.026Z,61.08
2018-03-08T08:24:20.030Z,62.21
2018-03-08T08:25:20.032Z,60.99
2018-03-08T08:26:20.038Z,59.19
2018-03-08T08:27:20.041Z,59.41
2018-03-08T08:28:20.044Z,61.77
2018-03-08T08:29:20.052Z,61.21
2018-03-08T08:30:20.054Z,59.89
2018-03-08T08:31:20.060Z,58.94
2018-03-08T08:32:20.057Z,58.65
2018-03-08T08:33:20.066Z,58.56
2018-03-08T08:34:20.064Z,58.47
2018-03-08T08:35:20.078Z,58.75
2018-03-08T08:36:20.087Z,57.81
2018-03-08T08:37:20.081Z,58.47
2018-03-08T08:38:20.084Z,60.27
2018-03-08T08:39:20.093Z,60.30
2018-03-08T08:40:20.101Z,58.50
2018-03-08T08:41:20.095Z,57.27
2018-03-08T08:42:20.100Z,57.90
2018-03-08T08:43:20.105Z,59.16
2018-03-08T08:44:20.108Z,58.94
2018-03-08T08:45:20.106Z,61.11
2018-03-08T08:46:20.115Z,60.64
2018-03-08T08:47:20.122Z,59.16
2018-03-08T08:48:20.126Z,57.27
2018-03-08T08:49:20.129Z,57.93
2018-03-08T08:50:20.132Z,58.87
2018-03-08T08:51:20.132Z,56.61
2018-03-08T08:52:20.138Z,55.29
2018-03-08T08:53:20.145Z,56.13
2018-03-08T08:54:20.150Z,56.61
2018-03-08T08:55:20.153Z,57.65
2018-03-08T08:56:20.154Z,57.93
2018-03-08T08:57:20.157Z,57.93
2018-03-08T08:58:20.167Z,58.31
2018-03-08T08:59:20.167Z,59.25
2018-03-08T09:00:20.171Z,60.86
2018-03-08T09:01:20.174Z,60.77
2018-03-08T09:02:20.186Z,61.33
2018-03-08T09:03:20.185Z,58.97
2018-03-08T09:04:20.195Z,60.30
2018-03-08T09:05:20.197Z,58.50
2018-03-08T09:06:20.202Z,57.93
2018-03-08T09:07:20.210Z,58.97
2018-03-08T09:08:20.212Z,59.16
2018-03-08T09:09:20.214Z,58.87
2018-03-08T09:10:20.224Z,58.78
2018-03-08T09:11:20.221Z,58.87
2018-03-08T09:12:20.233Z,58.59
2018-03-08T09:13:20.237Z,60.11
2018-03-08T09:14:20.242Z,61.05
2018-03-08T09:15:20.242Z,60.89
2018-03-08T09:16:20.248Z,59.63
2018-03-08T09:17:20.250Z,58.50
2018-03-08T09:18:20.260Z,57.84
2018-03-08T09:19:20.275Z,56.63
2018-03-08T09:20:20.268Z,57.84
2018-03-08T09:21:20.276Z,57.27
2018-03-08T09:22:20.280Z,56.04
2018-03-08T09:23:20.284Z,56.32
2018-03-08T09:24:20.293Z,56.99
2018-03-08T09:25:20.292Z,57.46
2018-03-08T09:26:20.303Z,59.09
2018-03-08T09:27:20.308Z,58.91
2018-03-08T09:28:20.317Z,56.51
2018-03-08T09:29:20.314Z,56.32
2018-03-08T09:30:20.320Z,58.50
2018-03-08T09:31:20.332Z,59.00
2018-03-08T09:32:20.334Z,57.30
2018-03-08T09:33:20.335Z,56.63
2018-03-08T09:34:20.345Z,55.31
2018-03-08T09:35:20.346Z,53.52
2018-03-08T09:36:20.352Z,53.70
2018-03-08T09:37:20.357Z,54.08
2018-03-08T09:38:20.365Z,54.74
2018-03-08T09:39:20.368Z,54.55
2018-03-08T09:40:20.379Z,52.76
2018-03-08T09:41:20.384Z,51.25
2018-03-08T09:42:20.389Z,52.38
2018-03-08T09:43:20.395Z,52.38
2018-03-08T09:44:20.407Z,51.91
2018-03-08T09:45:20.408Z,50.68
2018-03-08T09:46:20.412Z,51.72
2018-03-08T09:47:20.420Z,54.74
2018-03-08T09:48:20.425Z,50.78
2018-03-08T09:49:20.432Z,51.15
2018-03-08T09:50:20.435Z,51.62
2018-03-08T09:51:20.442Z,52.57
2018-03-08T09:52:20.444Z,52.57
2018-03-08T09:53:20.451Z,53.74
2018-03-08T09:54:20.459Z,52.12
2018-03-08T09:55:20.466Z,50.90
2018-03-08T09:56:20.466Z,49.41
2018-03-08T09:57:20.473Z,48.15
2018-03-08T09:58:20.483Z,47.39
2018-03-08T09:59:20.488Z,46.73
2018-03-08T10:00:20.489Z,47.02
2018-03-08T10:01:20.501Z,47.96
2018-03-08T10:02:20.500Z,49.10
2018-03-08T10:03:20.515Z,49.85
2018-03-08T10:04:20.516Z,48.53
2018-03-08T10:05:20.519Z,45.79
2018-03-08T10:06:20.530Z,46.45
2018-03-08T10:07:20.533Z,44.27
2018-03-08T10:08:20.545Z,43.99
2018-03-08T10:09:20.549Z,42.29
2018-03-08T10:10:20.555Z,42.85
2018-03-08T10:11:20.558Z,44.09
2018-03-08T10:12:20.566Z,42.50
2018-03-08T10:13:20.577Z,40.32
2018-03-08T10:14:20.579Z,40.70
2018-03-08T10:15:20.590Z,39.65
2018-03-08T10:16:20.594Z,37.95
2018-03-08T10:17:20.609Z,36.82
2018-03-08T10:18:20.603Z,35.95
2018-03-08T10:19:20.618Z,35.47
2018-03-08T10:20:20.620Z,37.93
2018-03-08T10:21:44.182Z,39.28
2018-03-08T10:22:20.632Z,38.43
2018-03-08T10:23:20.645Z,38.43
2018-03-08T10:24:20.647Z,39.56
2018-03-08T10:25:20.657Z,40.13
2018-03-08T10:26:20.665Z,40.98
2018-03-08T10:27:20.672Z,39.84
2018-03-08T10:28:20.691Z,42.21
2018-03-08T10:29:20.685Z,41.93
2018-03-08T10:30:20.688Z,41.93
2018-03-08T10:31:20.695Z,42.30
2018-03-08T10:32:20.707Z,43.91
2018-03-08T10:33:20.770Z,44.01
2018-03-08T10:34:20.721Z,44.67
2018-03-08T10:35:20.729Z,43.16
2018-03-08T10:36:20.740Z,42.40
2018-03-08T10:37:20.744Z,41.66
2018-03-08T10:38:20.753Z,42.14
2018-03-08T10:40:20.771Z,42.11
2018-03-08T10:41:20.776Z,45.81
2018-03-08T10:42:20.776Z,46.09
2018-03-08T10:43:20.785Z,45.43
2018-03-08T10:44:20.797Z,44.77
2018-03-08T10:45:20.806Z,45.26
2018-03-08T10:46:20.808Z,44.15
2018-03-08T10:47:20.826Z,43.13
2018-03-08T10:48:20.827Z,41.61
2018-03-08T10:49:20.830Z,40.57
2018-03-08T10:50:20.869Z,40.95
2018-03-08T10:51:20.849Z,40.64
2018-03-08T10:52:20.859Z,40.74
2018-03-08T10:53:20.870Z,40.55
2018-03-08T10:54:20.878Z,40.36
2018-03-08T10:55:20.880Z,41.52
2018-03-08T10:56:20.889Z,42.35
2018-03-08T10:57:20.905Z,40.45
2018-03-08T10:58:20.906Z,39.72
2018-03-08T10:59:20.916Z,38.56
2018-03-08T11:00:20.924Z,39.60
2018-03-08T11:01:20.937Z,40.64
2018-03-08T11:02:20.943Z,38.75
2018-03-08T11:03:20.952Z,39.05
2018-03-08T11:04:20.965Z,35.81
2018-03-08T11:05:20.969Z,36.30
2018-03-08T11:06:20.984Z,36.78
2018-03-08T11:07:20.992Z,37.04
2018-03-08T11:08:21.001Z,37.82
2018-03-08T11:09:21.005Z,39.34
2018-03-08T11:10:21.014Z,44.27
2018-03-08T11:11:21.026Z,44.17
2018-03-08T11:12:21.041Z,43.30
2018-03-08T11:13:21.048Z,42.37
2018-03-08T11:14:21.055Z,41.99
2018-03-08T11:15:21.070Z,42.37
2018-03-08T11:16:21.072Z,40.83
2018-03-08T11:17:21.081Z,43.98
2018-03-08T11:18:21.090Z,44.06
2018-03-08T11:19:21.105Z,45.67
2018-03-08T11:20:21.115Z,45.67
2018-03-08T11:21:21.123Z,47.09
2018-03-08T11:22:21.128Z,45.67
2018-03-08T11:23:21.137Z,46.90
2018-03-08T11:24:21.157Z,45.36
2018-03-08T11:25:21.155Z,45.36
2018-03-08T11:26:21.166Z,46.14
2018-03-08T11:27:21.175Z,45.67
2018-03-08T11:28:21.190Z,44.53
2018-03-08T11:29:21.194Z,43.30
2018-03-08T11:30:21.210Z,43.23
2018-03-08T11:31:21.220Z,43.11
2018-03-08T11:32:21.224Z,45.03
2018-03-08T11:33:21.232Z,43.04
2018-03-08T11:34:21.249Z,40.47
2018-03-08T11:35:21.257Z,40.38
2018-03-08T11:36:21.263Z,43.23
2018-03-08T11:37:21.276Z,41.99
2018-03-08T11:38:21.282Z,42.96
2018-03-08T11:39:21.291Z,41.18
2018-03-08T11:40:21.301Z,40.40
2018-03-08T11:41:23.094Z,39.62
2018-03-08T11:42:21.325Z,40.09
2018-03-08T11:43:21.386Z,42.75
2018-03-08T11:44:21.353Z,43.79
2018-03-08T11:45:21.357Z,45.69
2018-03-08T11:46:21.367Z,42.94
2018-03-08T11:47:21.377Z,40.57
2018-03-08T11:48:21.389Z,40.76
2018-03-08T11:49:21.397Z,42.08
2018-03-08T11:50:21.853Z,41.80
2018-03-08T11:51:21.413Z,41.88
2018-03-08T11:52:21.431Z,45.88
2018-03-08T11:53:21.440Z,44.72
2018-03-08T11:54:21.450Z,45.40
2018-03-08T11:55:21.454Z,42.94
2018-03-08T11:56:21.464Z,43.13
2018-03-08T11:57:21.473Z,44.01
2018-03-08T11:58:21.492Z,41.92
2018-03-08T11:59:21.493Z,39.73
2018-03-08T12:00:21.508Z,38.01
2018-03-08T12:01:21.520Z,36.87
2018-03-08T12:02:21.524Z,37.16
2018-03-08T12:03:21.535Z,39.07
2018-03-08T12:04:21.545Z,40.59
2018-03-08T12:05:21.556Z,39.73
2018-03-08T12:06:21.566Z,40.70
2018-03-08T12:07:21.585Z,40.53
2018-03-08T12:08:21.587Z,38.62
2018-03-08T12:09:21.602Z,37.78
2018-03-08T12:10:21.608Z,39.18
2018-03-08T12:11:21.619Z,39.95
2018-03-08T12:12:21.634Z,39.64
2018-03-08T12:13:21.645Z,40.21
2018-03-08T12:14:21.655Z,41.85
2018-03-08T12:15:21.665Z,41.77
2018-03-08T12:16:21.673Z,38.92
2018-03-08T12:17:21.691Z,38.28
2018-03-08T12:18:21.692Z,36.09
2018-03-08T12:19:21.705Z,35.44
2018-03-08T12:20:21.721Z,35.56
2018-03-08T12:21:21.725Z,36.41
2018-03-08T12:22:21.736Z,32.90
2018-03-08T12:23:21.749Z,30.62
2018-03-08T12:24:21.764Z,29.30
2018-03-08T12:25:21.771Z,29.58
2018-03-08T12:26:21.789Z,30.73
2018-03-08T12:27:21.796Z,30.73
2018-03-08T12:28:21.812Z,32.06
2018-03-08T12:29:21.823Z,31.98
2018-03-08T12:30:21.837Z,32.26
2018-03-08T12:31:21.848Z,29.60
2018-03-08T12:32:21.901Z,28.47
2018-03-08T12:33:21.877Z,28.66
2018-03-08T12:34:21.884Z,28.66
2018-03-08T12:35:21.897Z,27.99
2018-03-08T12:36:21.912Z,28.85
2018-03-08T12:37:21.924Z,29.69
2018-03-08T12:38:21.932Z,28.36
2018-03-08T12:39:21.951Z,28.36
2018-03-08T12:40:21.964Z,30.28
2018-03-08T12:41:21.970Z,29.23
2018-03-08T12:42:21.989Z,28.77
2018-03-08T12:43:22.004Z,28.10
2018-03-08T12:44:22.018Z,27.71
2018-03-08T12:45:22.023Z,29.28
2018-03-08T12:46:22.039Z,32.21
2018-03-08T12:47:22.059Z,32.59
2018-03-08T12:48:22.072Z,33.17
2018-03-08T12:49:22.080Z,34.23
2018-03-08T12:50:22.100Z,34.03
2018-03-08T12:51:22.109Z,34.13
2018-03-08T12:52:22.122Z,34.30
2018-03-08T12:53:22.138Z,35.54